CheckWX is a tool to help pilots better visualize weather data.  It is not intended as a substitute for an official pre-flight weather briefing.

06:40:59 UTC

LHBP METAR
Budapest Ferenc Liszt International Airport
Budapest, Hungary
Current

11 mins ago

LHBP 200630Z 12006KT CAVOK 13/13 Q1018 NOSIG
Observed
Oct-20 @ 06:30 UTC
Wind
  • 120° at 6 KTS
Visibility
10,000+ meters
Flight Rules
VFR
Cloud Levels
  • Clear skies
Temperature
13°C / 55°F
Dewpoint
13°C / 55°F
Humidity
100%
Altimeter
30.06" Hg
Pressure
1017.92 hPa
Previous

41 mins ago

LHBP 200600Z 12005KT CAVOK 12/12 Q1018 NOSIG
Observed
Oct-20 @ 06:00 UTC
Wind
  • 120° at 5 KTS
Visibility
10,000+ meters
Flight Rules
VFR
Cloud Levels
  • Clear skies
Temperature
12°C / 54°F
Dewpoint
12°C / 54°F
Humidity
100%
Altimeter
30.06" Hg
Pressure
1017.92 hPa
Previous

1 hour ago

LHBP 200530Z 13005KT CAVOK 10/10 Q1018 NOSIG
Observed
Oct-20 @ 05:30 UTC
Wind
  • 130° at 5 KTS
Visibility
10,000+ meters
Flight Rules
VFR
Cloud Levels
  • Clear skies
Temperature
10°C / 50°F
Dewpoint
10°C / 50°F
Humidity
100%
Altimeter
30.06" Hg
Pressure
1017.92 hPa